Fremont, Wisconsin
Current Conditions -  °F | °C
As of 8:55 AM on Tuesday 21 Oct 2014 (Local Time) from KPCZ Reporting Station
Overcast Overcast  
Wind Chill: 41°   Ceiling: 2200
Heat Index: 44°   Visibility: 10mi
Dew Point: 38°   Wind: 6mph
Humidity: 77%   Direction: 40°NE
Pressure: 30.22"   Gusts: NA
Location:  44.26°N, 88.86°W
Report Text: KPCZ 211355Z AUTO 04005KT 10SM OVC022 07/03 A3022 RMK AO2 T00690031
Loading
Personal Weather Stations






























Interactive Weather Map
Tropical Storm Tracking
New forecast layout! Learn more

10-Day Weather Forecast

Advertisements
Track Severe Weather on mobile